sensor_id;sensor_type;location;lat;lon;timestamp;pressure;altitude;pressure_sealevel;temperature;humidity
35553;BME280;21656;46.054;13.614;2022-09-02T00:00:23;100635.31;;;17.18;84.65
35553;BME280;21656;46.054;13.614;2022-09-02T00:02:49;100639.44;;;17.22;84.83
35553;BME280;21656;46.054;13.614;2022-09-02T00:05:16;100638.94;;;17.26;84.74
35553;BME280;21656;46.054;13.614;2022-09-02T00:07:41;100640.66;;;17.27;85.13
35553;BME280;21656;46.054;13.614;2022-09-02T00:10:07;100632.00;;;17.06;85.42
35553;BME280;21656;46.054;13.614;2022-09-02T00:12:32;100631.75;;;17.17;85.43
35553;BME280;21656;46.054;13.614;2022-09-02T00:14:58;100632.06;;;17.14;85.55
35553;BME280;21656;46.054;13.614;2022-09-02T00:17:23;100631.13;;;17.31;86.26
35553;BME280;21656;46.054;13.614;2022-09-02T00:19:48;100633.72;;;17.41;85.71
35553;BME280;21656;46.054;13.614;2022-09-02T00:22:14;100631.53;;;17.10;86.24
35553;BME280;21656;46.054;13.614;2022-09-02T00:24:40;100637.19;;;17.17;86.06
35553;BME280;21656;46.054;13.614;2022-09-02T00:27:05;100631.47;;;17.28;85.37
35553;BME280;21656;46.054;13.614;2022-09-02T00:29:30;100632.19;;;17.04;87.15
35553;BME280;21656;46.054;13.614;2022-09-02T00:31:57;100635.19;;;17.19;87.19
35553;BME280;21656;46.054;13.614;2022-09-02T00:34:23;100637.34;;;17.16;86.61
35553;BME280;21656;46.054;13.614;2022-09-02T00:36:49;100627.31;;;16.90;86.65
35553;BME280;21656;46.054;13.614;2022-09-02T00:39:14;100635.25;;;16.83;87.79
35553;BME280;21656;46.054;13.614;2022-09-02T00:41:42;100637.00;;;16.66;88.31
35553;BME280;21656;46.054;13.614;2022-09-02T00:44:11;100638.69;;;16.85;88.03
35553;BME280;21656;46.054;13.614;2022-09-02T00:46:37;100645.41;;;16.99;88.02
35553;BME280;21656;46.054;13.614;2022-09-02T00:49:10;100640.53;;;17.11;87.38
35553;BME280;21656;46.054;13.614;2022-09-02T00:51:47;100639.97;;;17.25;86.99
35553;BME280;21656;46.054;13.614;2022-09-02T00:54:16;100639.91;;;17.17;87.09
35553;BME280;21656;46.054;13.614;2022-09-02T00:56:45;100640.88;;;17.08;86.74
35553;BME280;21656;46.054;13.614;2022-09-02T01:02:05;100646.06;;;16.75;88.16
35553;BME280;21656;46.054;13.614;2022-09-02T01:04:32;100645.97;;;17.11;88.13
35553;BME280;21656;46.054;13.614;2022-09-02T01:06:57;100646.97;;;17.02;87.53
35553;BME280;21656;46.054;13.614;2022-09-02T01:09:23;100646.44;;;17.24;87.00
35553;BME280;21656;46.054;13.614;2022-09-02T01:11:49;100642.47;;;17.19;86.65
35553;BME280;21656;46.054;13.614;2022-09-02T01:14:18;100644.16;;;16.94;86.27
35553;BME280;21656;46.054;13.614;2022-09-02T01:16:47;100635.47;;;16.90;87.89
35553;BME280;21656;46.054;13.614;2022-09-02T01:19:39;100631.16;;;16.79;88.06
35553;BME280;21656;46.054;13.614;2022-09-02T01:22:27;100631.22;;;16.69;88.88
35553;BME280;21656;46.054;13.614;2022-09-02T01:24:56;100639.47;;;16.60;89.87
35553;BME280;21656;46.054;13.614;2022-09-02T01:27:22;100631.19;;;16.43;90.05
35553;BME280;21656;46.054;13.614;2022-09-02T01:29:52;100632.56;;;16.47;90.49
35553;BME280;21656;46.054;13.614;2022-09-02T01:32:18;100626.72;;;16.60;90.97
35553;BME280;21656;46.054;13.614;2022-09-02T01:34:44;100628.16;;;16.46;92.07
35553;BME280;21656;46.054;13.614;2022-09-02T01:37:10;100628.75;;;16.76;89.78
35553;BME280;21656;46.054;13.614;2022-09-02T01:39:35;100632.50;;;16.57;90.29
35553;BME280;21656;46.054;13.614;2022-09-02T01:42:01;100631.41;;;16.32;90.80
35553;BME280;21656;46.054;13.614;2022-09-02T01:44:27;100626.44;;;16.10;92.69
35553;BME280;21656;46.054;13.614;2022-09-02T01:46:53;100627.94;;;16.22;93.39
35553;BME280;21656;46.054;13.614;2022-09-02T01:49:19;100621.78;;;16.20;93.46
35553;BME280;21656;46.054;13.614;2022-09-02T01:51:45;100622.75;;;16.29;92.76
35553;BME280;21656;46.054;13.614;2022-09-02T01:54:10;100616.53;;;16.36;92.72
35553;BME280;21656;46.054;13.614;2022-09-02T01:56:36;100614.59;;;15.93;94.14
35553;BME280;21656;46.054;13.614;2022-09-02T01:59:03;100617.63;;;16.25;94.18
35553;BME280;21656;46.054;13.614;2022-09-02T02:01:29;100618.09;;;16.21;93.74
35553;BME280;21656;46.054;13.614;2022-09-02T02:03:54;100615.81;;;16.16;93.10
35553;BME280;21656;46.054;13.614;2022-09-02T02:06:20;100626.22;;;16.39;93.50
35553;BME280;21656;46.054;13.614;2022-09-02T02:08:45;100618.00;;;16.49;92.66
35553;BME280;21656;46.054;13.614;2022-09-02T02:11:18;100623.88;;;16.62;92.33
35553;BME280;21656;46.054;13.614;2022-09-02T02:13:44;100622.28;;;16.77;91.85
35553;BME280;21656;46.054;13.614;2022-09-02T02:16:09;100627.66;;;16.69;89.91
35553;BME280;21656;46.054;13.614;2022-09-02T02:18:34;100620.22;;;16.53;90.47
35553;BME280;21656;46.054;13.614;2022-09-02T02:21:01;100618.16;;;16.73;90.19
35553;BME280;21656;46.054;13.614;2022-09-02T02:23:27;100620.38;;;16.52;90.74
35553;BME280;21656;46.054;13.614;2022-09-02T02:25:52;100626.66;;;16.52;91.12
35553;BME280;21656;46.054;13.614;2022-09-02T02:28:18;100630.28;;;16.61;90.98
35553;BME280;21656;46.054;13.614;2022-09-02T02:30:44;100630.63;;;16.58;90.28
35553;BME280;21656;46.054;13.614;2022-09-02T02:33:09;100629.47;;;16.42;90.06
35553;BME280;21656;46.054;13.614;2022-09-02T02:35:35;100633.22;;;16.23;91.36
35553;BME280;21656;46.054;13.614;2022-09-02T02:38:00;100625.13;;;16.32;92.40
35553;BME280;21656;46.054;13.614;2022-09-02T02:40:26;100627.72;;;16.33;91.85
35553;BME280;21656;46.054;13.614;2022-09-02T02:42:52;100625.97;;;16.50;91.73
35553;BME280;21656;46.054;13.614;2022-09-02T02:45:18;100624.09;;;16.51;90.69
35553;BME280;21656;46.054;13.614;2022-09-02T02:47:44;100629.53;;;16.33;91.39
35553;BME280;21656;46.054;13.614;2022-09-02T02:50:13;100627.84;;;16.50;91.47
35553;BME280;21656;46.054;13.614;2022-09-02T02:52:40;100622.16;;;16.43;92.22
35553;BME280;21656;46.054;13.614;2022-09-02T02:55:07;100625.81;;;16.52;91.67
35553;BME280;21656;46.054;13.614;2022-09-02T02:57:34;100622.28;;;16.33;91.54
35553;BME280;21656;46.054;13.614;2022-09-02T03:00:09;100617.84;;;16.14;92.73
35553;BME280;21656;46.054;13.614;2022-09-02T03:02:35;100620.41;;;16.34;92.93
35553;BME280;21656;46.054;13.614;2022-09-02T03:05:02;100609.63;;;16.24;93.29
35553;BME280;21656;46.054;13.614;2022-09-02T03:07:28;100613.81;;;16.36;93.17
35553;BME280;21656;46.054;13.614;2022-09-02T03:09:53;100611.41;;;16.33;92.68
35553;BME280;21656;46.054;13.614;2022-09-02T03:12:19;100625.22;;;16.04;94.52
35553;BME280;21656;46.054;13.614;2022-09-02T03:14:45;100632.72;;;16.10;95.22
35553;BME280;21656;46.054;13.614;2022-09-02T03:17:10;100622.34;;;16.23;94.77
35553;BME280;21656;46.054;13.614;2022-09-02T03:19:35;100631.28;;;16.16;94.04
35553;BME280;21656;46.054;13.614;2022-09-02T03:22:01;100624.69;;;16.18;93.78
35553;BME280;21656;46.054;13.614;2022-09-02T03:24:26;100617.69;;;16.34;94.38
35553;BME280;21656;46.054;13.614;2022-09-02T03:26:52;100621.66;;;16.21;94.44
35553;BME280;21656;46.054;13.614;2022-09-02T03:29:17;100615.97;;;16.15;93.26
35553;BME280;21656;46.054;13.614;2022-09-02T03:31:43;100612.31;;;16.42;93.12
35553;BME280;21656;46.054;13.614;2022-09-02T03:34:08;100612.78;;;16.37;92.63
35553;BME280;21656;46.054;13.614;2022-09-02T03:36:36;100606.50;;;16.37;93.16
35553;BME280;21656;46.054;13.614;2022-09-02T03:39:03;100601.00;;;16.29;93.04
35553;BME280;21656;46.054;13.614;2022-09-02T03:41:29;100608.53;;;16.17;93.55
35553;BME280;21656;46.054;13.614;2022-09-02T03:43:54;100615.69;;;16.36;93.27
35553;BME280;21656;46.054;13.614;2022-09-02T03:46:20;100610.00;;;16.29;91.66
35553;BME280;21656;46.054;13.614;2022-09-02T03:48:46;100611.56;;;16.14;93.08
35553;BME280;21656;46.054;13.614;2022-09-02T03:51:14;100616.28;;;16.30;93.15
35553;BME280;21656;46.054;13.614;2022-09-02T03:53:39;100607.44;;;16.28;93.13
35553;BME280;21656;46.054;13.614;2022-09-02T03:56:06;100617.44;;;16.27;93.19
35553;BME280;21656;46.054;13.614;2022-09-02T03:58:33;100608.44;;;16.27;92.39
35553;BME280;21656;46.054;13.614;2022-09-02T04:00:59;100605.41;;;16.12;93.34
35553;BME280;21656;46.054;13.614;2022-09-02T04:03:25;100607.34;;;16.19;93.28
35553;BME280;21656;46.054;13.614;2022-09-02T04:05:53;100607.22;;;16.21;93.08
35553;BME280;21656;46.054;13.614;2022-09-02T04:08:19;100594.22;;;16.33;93.17
35553;BME280;21656;46.054;13.614;2022-09-02T04:10:44;100603.34;;;16.23;92.91
35553;BME280;21656;46.054;13.614;2022-09-02T04:13:10;100604.56;;;16.29;92.39
35553;BME280;21656;46.054;13.614;2022-09-02T04:15:40;100612.16;;;16.08;93.17
35553;BME280;21656;46.054;13.614;2022-09-02T04:18:08;100606.56;;;15.73;94.67
35553;BME280;21656;46.054;13.614;2022-09-02T04:20:37;100604.50;;;15.85;95.19
35553;BME280;21656;46.054;13.614;2022-09-02T04:23:03;100616.50;;;15.55;95.92
35553;BME280;21656;46.054;13.614;2022-09-02T04:25:29;100613.69;;;15.65;96.50
35553;BME280;21656;46.054;13.614;2022-09-02T04:27:55;100611.91;;;15.55;97.46
35553;BME280;21656;46.054;13.614;2022-09-02T04:30:20;100621.44;;;15.69;96.47
35553;BME280;21656;46.054;13.614;2022-09-02T04:32:48;100623.47;;;15.30;97.81
35553;BME280;21656;46.054;13.614;2022-09-02T04:35:14;100618.59;;;15.61;97.77
35553;BME280;21656;46.054;13.614;2022-09-02T04:37:39;100616.13;;;15.40;97.12
35553;BME280;21656;46.054;13.614;2022-09-02T04:40:05;100617.13;;;15.67;97.49
35553;BME280;21656;46.054;13.614;2022-09-02T04:42:30;100622.00;;;15.73;95.91
35553;BME280;21656;46.054;13.614;2022-09-02T04:44:56;100618.72;;;15.69;96.20
35553;BME280;21656;46.054;13.614;2022-09-02T04:47:22;100621.56;;;15.68;95.82
35553;BME280;21656;46.054;13.614;2022-09-02T04:49:49;100624.84;;;15.71;95.13
35553;BME280;21656;46.054;13.614;2022-09-02T04:52:15;100621.00;;;15.64;95.64
35553;BME280;21656;46.054;13.614;2022-09-02T04:54:40;100624.69;;;15.45;96.78
35553;BME280;21656;46.054;13.614;2022-09-02T04:57:06;100623.56;;;15.66;97.11
35553;BME280;21656;46.054;13.614;2022-09-02T04:59:31;100622.84;;;15.73;95.92
35553;BME280;21656;46.054;13.614;2022-09-02T05:02:00;100626.84;;;15.69;96.15
35553;BME280;21656;46.054;13.614;2022-09-02T05:04:26;100615.03;;;15.88;96.07
35553;BME280;21656;46.054;13.614;2022-09-02T05:06:51;100617.44;;;16.09;95.23
35553;BME280;21656;46.054;13.614;2022-09-02T05:09:19;100614.34;;;16.04;93.51
35553;BME280;21656;46.054;13.614;2022-09-02T05:11:45;100609.22;;;16.01;94.59
35553;BME280;21656;46.054;13.614;2022-09-02T05:14:12;100615.19;;;16.04;93.81
35553;BME280;21656;46.054;13.614;2022-09-02T05:16:40;100617.66;;;15.80;93.62
35553;BME280;21656;46.054;13.614;2022-09-02T05:19:08;100615.50;;;16.01;94.62
35553;BME280;21656;46.054;13.614;2022-09-02T05:21:41;100611.56;;;16.14;94.22
35553;BME280;21656;46.054;13.614;2022-09-02T05:24:07;100616.22;;;16.03;93.23
35553;BME280;21656;46.054;13.614;2022-09-02T05:26:33;100614.72;;;16.09;92.95
35553;BME280;21656;46.054;13.614;2022-09-02T05:29:01;100606.38;;;16.20;93.09
35553;BME280;21656;46.054;13.614;2022-09-02T05:31:27;100610.53;;;16.33;92.94
35553;BME280;21656;46.054;13.614;2022-09-02T05:33:53;100596.84;;;16.42;92.46
35553;BME280;21656;46.054;13.614;2022-09-02T05:36:19;100596.72;;;16.44;91.19
35553;BME280;21656;46.054;13.614;2022-09-02T05:38:46;100607.66;;;16.34;91.18
35553;BME280;21656;46.054;13.614;2022-09-02T05:41:15;100610.31;;;16.44;91.51
35553;BME280;21656;46.054;13.614;2022-09-02T05:43:44;100601.59;;;16.40;91.89
35553;BME280;21656;46.054;13.614;2022-09-02T05:46:12;100606.81;;;16.34;90.83
35553;BME280;21656;46.054;13.614;2022-09-02T05:48:42;100606.81;;;16.34;91.26
35553;BME280;21656;46.054;13.614;2022-09-02T05:51:27;100610.13;;;16.45;91.13
35553;BME280;21656;46.054;13.614;2022-09-02T05:53:57;100612.56;;;16.49;89.16
35553;BME280;21656;46.054;13.614;2022-09-02T05:56:24;100608.38;;;16.36;89.43
35553;BME280;21656;46.054;13.614;2022-09-02T05:58:50;100611.56;;;16.32;91.32
35553;BME280;21656;46.054;13.614;2022-09-02T06:01:17;100614.28;;;16.32;90.68
35553;BME280;21656;46.054;13.614;2022-09-02T06:03:44;100595.78;;;16.35;91.88
35553;BME280;21656;46.054;13.614;2022-09-02T06:06:10;100600.22;;;16.36;91.04
35553;BME280;21656;46.054;13.614;2022-09-02T06:08:35;100601.44;;;16.42;90.60
35553;BME280;21656;46.054;13.614;2022-09-02T06:11:02;100598.59;;;16.25;90.60
35553;BME280;21656;46.054;13.614;2022-09-02T06:13:29;100595.16;;;16.41;89.66
35553;BME280;21656;46.054;13.614;2022-09-02T06:15:55;100599.09;;;16.47;90.30
35553;BME280;21656;46.054;13.614;2022-09-02T06:18:22;100596.22;;;16.66;89.30
35553;BME280;21656;46.054;13.614;2022-09-02T06:20:48;100591.25;;;16.62;88.19
35553;BME280;21656;46.054;13.614;2022-09-02T06:23:15;100591.38;;;16.78;87.91
35553;BME280;21656;46.054;13.614;2022-09-02T06:25:43;100596.22;;;16.93;88.26
35553;BME280;21656;46.054;13.614;2022-09-02T06:28:09;100596.00;;;16.86;85.70
35553;BME280;21656;46.054;13.614;2022-09-02T06:30:38;100596.59;;;16.98;87.00
35553;BME280;21656;46.054;13.614;2022-09-02T06:33:04;100586.78;;;17.05;84.17
35553;BME280;21656;46.054;13.614;2022-09-02T06:35:30;100587.03;;;17.20;85.28
35553;BME280;21656;46.054;13.614;2022-09-02T06:37:57;100592.19;;;17.31;85.10
35553;BME280;21656;46.054;13.614;2022-09-02T06:40:23;100592.25;;;17.47;83.42
35553;BME280;21656;46.054;13.614;2022-09-02T06:42:48;100578.66;;;17.47;82.52
35553;BME280;21656;46.054;13.614;2022-09-02T06:45:14;100583.09;;;17.57;81.71
35553;BME280;21656;46.054;13.614;2022-09-02T06:47:40;100584.84;;;17.66;82.04
35553;BME280;21656;46.054;13.614;2022-09-02T06:50:06;100579.75;;;17.79;80.37
35553;BME280;21656;46.054;13.614;2022-09-02T06:52:32;100575.22;;;17.88;80.66
35553;BME280;21656;46.054;13.614;2022-09-02T06:54:58;100566.38;;;17.94;79.76
35553;BME280;21656;46.054;13.614;2022-09-02T06:57:24;100566.72;;;17.99;78.36
35553;BME280;21656;46.054;13.614;2022-09-02T06:59:49;100568.25;;;18.10;79.10
35553;BME280;21656;46.054;13.614;2022-09-02T07:02:14;100571.16;;;18.16;77.72
35553;BME280;21656;46.054;13.614;2022-09-02T07:04:40;100569.13;;;18.27;78.34
35553;BME280;21656;46.054;13.614;2022-09-02T07:07:24;100562.31;;;18.31;76.76
35553;BME280;21656;46.054;13.614;2022-09-02T07:09:50;100573.03;;;18.40;77.06
35553;BME280;21656;46.054;13.614;2022-09-02T07:12:16;100562.47;;;18.54;76.45
35553;BME280;21656;46.054;13.614;2022-09-02T07:14:44;100555.97;;;18.55;74.81
35553;BME280;21656;46.054;13.614;2022-09-02T07:17:12;100560.91;;;18.68;72.21
35553;BME280;21656;46.054;13.614;2022-09-02T07:19:42;100563.66;;;18.76;73.16
35553;BME280;21656;46.054;13.614;2022-09-02T07:22:07;100557.00;;;18.78;74.46
35553;BME280;21656;46.054;13.614;2022-09-02T07:24:33;100567.91;;;18.87;72.87
35553;BME280;21656;46.054;13.614;2022-09-02T07:26:58;100567.03;;;18.86;69.94
35553;BME280;21656;46.054;13.614;2022-09-02T07:29:24;100566.69;;;18.97;71.87
35553;BME280;21656;46.054;13.614;2022-09-02T07:31:49;100565.28;;;19.10;71.74
35553;BME280;21656;46.054;13.614;2022-09-02T07:34:15;100560.44;;;19.28;70.75
35553;BME280;21656;46.054;13.614;2022-09-02T07:36:41;100561.34;;;19.52;70.05
35553;BME280;21656;46.054;13.614;2022-09-02T07:39:10;100553.25;;;19.66;68.57
35553;BME280;21656;46.054;13.614;2022-09-02T07:41:38;100555.78;;;19.76;68.07
35553;BME280;21656;46.054;13.614;2022-09-02T07:44:04;100560.69;;;19.81;65.51
35553;BME280;21656;46.054;13.614;2022-09-02T07:46:30;100564.72;;;19.93;61.82
35553;BME280;21656;46.054;13.614;2022-09-02T07:48:57;100562.06;;;20.08;57.78
35553;BME280;21656;46.054;13.614;2022-09-02T07:51:23;100562.28;;;20.21;59.99
35553;BME280;21656;46.054;13.614;2022-09-02T07:53:48;100571.69;;;20.42;54.58
35553;BME280;21656;46.054;13.614;2022-09-02T07:56:16;100566.13;;;20.50;56.91
35553;BME280;21656;46.054;13.614;2022-09-02T07:58:44;100567.47;;;20.54;55.40
35553;BME280;21656;46.054;13.614;2022-09-02T08:01:10;100567.44;;;20.62;56.66
35553;BME280;21656;46.054;13.614;2022-09-02T08:03:38;100567.56;;;20.69;55.56
35553;BME280;21656;46.054;13.614;2022-09-02T08:06:05;100570.28;;;20.84;53.26
35553;BME280;21656;46.054;13.614;2022-09-02T08:08:32;100565.59;;;20.92;56.86
35553;BME280;21656;46.054;13.614;2022-09-02T08:10:58;100564.81;;;20.98;55.10
35553;BME280;21656;46.054;13.614;2022-09-02T08:13:24;100564.44;;;21.16;53.10
35553;BME280;21656;46.054;13.614;2022-09-02T08:15:50;100570.59;;;21.18;50.64
35553;BME280;21656;46.054;13.614;2022-09-02T08:18:16;100572.94;;;21.21;52.07
35553;BME280;21656;46.054;13.614;2022-09-02T08:20:42;100569.06;;;21.31;50.99
35553;BME280;21656;46.054;13.614;2022-09-02T08:23:08;100574.66;;;21.37;50.22
35553;BME280;21656;46.054;13.614;2022-09-02T08:25:34;100565.22;;;21.40;48.68
35553;BME280;21656;46.054;13.614;2022-09-02T08:28:02;100562.75;;;21.45;49.45
35553;BME280;21656;46.054;13.614;2022-09-02T08:30:29;100567.06;;;21.54;48.64
35553;BME280;21656;46.054;13.614;2022-09-02T08:32:56;100561.03;;;21.59;50.73
35553;BME280;21656;46.054;13.614;2022-09-02T08:35:21;100564.69;;;21.66;48.97
35553;BME280;21656;46.054;13.614;2022-09-02T08:37:47;100555.69;;;21.72;49.67
35553;BME280;21656;46.054;13.614;2022-09-02T08:40:17;100558.06;;;21.75;49.15
35553;BME280;21656;46.054;13.614;2022-09-02T08:42:49;100562.19;;;21.86;48.72
35553;BME280;21656;46.054;13.614;2022-09-02T08:45:31;100550.84;;;21.89;51.08
35553;BME280;21656;46.054;13.614;2022-09-02T08:50:38;100555.53;;;22.17;48.38
35553;BME280;21656;46.054;13.614;2022-09-02T08:56:02;100547.88;;;22.27;48.90
35553;BME280;21656;46.054;13.614;2022-09-02T08:58:35;100539.50;;;22.35;48.84
35553;BME280;21656;46.054;13.614;2022-09-02T09:04:00;100533.00;;;22.43;47.92
35553;BME280;21656;46.054;13.614;2022-09-02T09:06:34;100540.22;;;22.44;47.83
35553;BME280;21656;46.054;13.614;2022-09-02T09:11:57;100531.81;;;22.52;47.11
35553;BME280;21656;46.054;13.614;2022-09-02T09:14:34;100535.88;;;22.56;47.64
35553;BME280;21656;46.054;13.614;2022-09-02T09:17:07;100534.41;;;22.60;47.51
35553;BME280;21656;46.054;13.614;2022-09-02T09:19:49;100528.28;;;22.58;47.87
35553;BME280;21656;46.054;13.614;2022-09-02T09:22:23;100526.66;;;22.64;49.19
35553;BME280;21656;46.054;13.614;2022-09-02T09:24:51;100520.53;;;22.68;48.87
35553;BME280;21656;46.054;13.614;2022-09-02T09:27:19;100527.53;;;22.71;47.77
35553;BME280;21656;46.054;13.614;2022-09-02T09:29:46;100515.91;;;22.69;48.23
35553;BME280;21656;46.054;13.614;2022-09-02T09:32:28;100522.28;;;22.76;49.54
35553;BME280;21656;46.054;13.614;2022-09-02T09:39:58;100504.56;;;23.07;47.90
35553;BME280;21656;46.054;13.614;2022-09-02T09:42:33;100513.84;;;23.06;47.87
35553;BME280;21656;46.054;13.614;2022-09-02T09:50:32;100496.34;;;23.13;47.71
35553;BME280;21656;46.054;13.614;2022-09-02T09:58:21;100489.25;;;23.32;47.74
35553;BME280;21656;46.054;13.614;2022-09-02T10:00:50;100489.03;;;23.34;47.44
35553;BME280;21656;46.054;13.614;2022-09-02T10:03:22;100478.91;;;23.41;46.34
35553;BME280;21656;46.054;13.614;2022-09-02T10:05:56;100479.31;;;23.38;45.91
35553;BME280;21656;46.054;13.614;2022-09-02T10:08:25;100470.88;;;23.40;46.45
35553;BME280;21656;46.054;13.614;2022-09-02T10:10:57;100481.25;;;23.51;46.59
35553;BME280;21656;46.054;13.614;2022-09-02T10:13:29;100474.31;;;23.55;45.90
35553;BME280;21656;46.054;13.614;2022-09-02T10:18:34;100473.28;;;23.69;46.45
35553;BME280;21656;46.054;13.614;2022-09-02T10:21:19;100450.25;;;23.77;46.20
35553;BME280;21656;46.054;13.614;2022-09-02T10:26:52;100449.03;;;23.93;46.56
35553;BME280;21656;46.054;13.614;2022-09-02T10:29:49;100437.16;;;23.92;45.48
35553;BME280;21656;46.054;13.614;2022-09-02T10:40:44;100443.53;;;24.26;46.15
35553;BME280;21656;46.054;13.614;2022-09-02T10:46:21;100443.75;;;24.51;41.92
35553;BME280;21656;46.054;13.614;2022-09-02T10:51:46;100434.22;;;24.47;44.28
35553;BME280;21656;46.054;13.614;2022-09-02T10:57:08;100443.25;;;24.68;42.10
35553;BME280;21656;46.054;13.614;2022-09-02T10:59:48;100440.91;;;24.84;41.35
35553;BME280;21656;46.054;13.614;2022-09-02T11:02:27;100442.75;;;24.91;41.23
35553;BME280;21656;46.054;13.614;2022-09-02T11:04:59;100437.88;;;24.99;42.26
35553;BME280;21656;46.054;13.614;2022-09-02T11:07:32;100430.66;;;24.98;41.57
35553;BME280;21656;46.054;13.614;2022-09-02T11:10:15;100434.25;;;25.05;41.16
35553;BME280;21656;46.054;13.614;2022-09-02T11:12:51;100422.56;;;25.10;42.34
35553;BME280;21656;46.054;13.614;2022-09-02T11:15:51;100415.78;;;25.13;42.47
35553;BME280;21656;46.054;13.614;2022-09-02T11:18:32;100418.53;;;25.13;41.17
35553;BME280;21656;46.054;13.614;2022-09-02T11:34:57;100427.44;;;25.53;37.97
35553;BME280;21656;46.054;13.614;2022-09-02T11:40:08;100433.19;;;25.83;38.98
35553;BME280;21656;46.054;13.614;2022-09-02T11:53:42;100423.41;;;26.12;38.02
35553;BME280;21656;46.054;13.614;2022-09-02T11:58:44;100423.69;;;26.04;37.88
35553;BME280;21656;46.054;13.614;2022-09-02T12:03:45;100422.09;;;25.90;37.63
35553;BME280;21656;46.054;13.614;2022-09-02T12:06:14;100421.44;;;25.94;39.45
35553;BME280;21656;46.054;13.614;2022-09-02T12:14:06;100413.31;;;26.25;38.33
35553;BME280;21656;46.054;13.614;2022-09-02T12:16:44;100410.81;;;26.23;38.82
35553;BME280;21656;46.054;13.614;2022-09-02T12:19:30;100417.28;;;26.10;38.97
35553;BME280;21656;46.054;13.614;2022-09-02T12:22:24;100409.22;;;26.09;39.63
35553;BME280;21656;46.054;13.614;2022-09-02T12:24:56;100411.00;;;26.03;37.94
35553;BME280;21656;46.054;13.614;2022-09-02T12:27:27;100410.28;;;26.08;37.66
35553;BME280;21656;46.054;13.614;2022-09-02T12:29:56;100405.72;;;26.20;37.88
35553;BME280;21656;46.054;13.614;2022-09-02T12:35:13;100403.88;;;26.14;37.58
35553;BME280;21656;46.054;13.614;2022-09-02T12:40:38;100397.00;;;26.23;37.99
35553;BME280;21656;46.054;13.614;2022-09-02T12:43:18;100398.25;;;26.02;38.99
35553;BME280;21656;46.054;13.614;2022-09-02T12:45:55;100390.41;;;25.74;38.19
35553;BME280;21656;46.054;13.614;2022-09-02T12:48:28;100391.22;;;25.74;39.78
35553;BME280;21656;46.054;13.614;2022-09-02T12:51:02;100389.13;;;25.45;37.52
35553;BME280;21656;46.054;13.614;2022-09-02T12:53:42;100395.31;;;25.40;36.52
35553;BME280;21656;46.054;13.614;2022-09-02T12:58:43;100389.69;;;25.54;36.58
35553;BME280;21656;46.054;13.614;2022-09-02T13:06:43;100372.59;;;25.70;40.19
35553;BME280;21656;46.054;13.614;2022-09-02T13:12:02;100373.69;;;25.69;37.96
35553;BME280;21656;46.054;13.614;2022-09-02T13:23:35;100366.56;;;25.86;39.45
35553;BME280;21656;46.054;13.614;2022-09-02T13:33:31;100356.66;;;26.04;37.01
35553;BME280;21656;46.054;13.614;2022-09-02T13:35:58;100363.69;;;26.00;38.23
35553;BME280;21656;46.054;13.614;2022-09-02T13:38:26;100353.31;;;25.95;38.44
35553;BME280;21656;46.054;13.614;2022-09-02T13:40:53;100354.50;;;25.81;39.12
35553;BME280;21656;46.054;13.614;2022-09-02T13:43:22;100343.34;;;25.69;39.30
35553;BME280;21656;46.054;13.614;2022-09-02T13:45:52;100345.09;;;25.63;39.91
35553;BME280;21656;46.054;13.614;2022-09-02T13:48:26;100340.41;;;25.64;41.53
35553;BME280;21656;46.054;13.614;2022-09-02T13:50:58;100344.00;;;25.64;39.46
35553;BME280;21656;46.054;13.614;2022-09-02T13:53:33;100340.63;;;25.62;39.20
35553;BME280;21656;46.054;13.614;2022-09-02T13:56:06;100340.81;;;25.67;38.23
35553;BME280;21656;46.054;13.614;2022-09-02T13:58:41;100344.63;;;25.66;38.87
35553;BME280;21656;46.054;13.614;2022-09-02T14:03:52;100339.50;;;25.70;39.40
35553;BME280;21656;46.054;13.614;2022-09-02T14:06:22;100331.31;;;25.63;38.74
35553;BME280;21656;46.054;13.614;2022-09-02T14:08:55;100339.59;;;25.63;38.17
35553;BME280;21656;46.054;13.614;2022-09-02T14:11:24;100322.03;;;25.58;41.13
35553;BME280;21656;46.054;13.614;2022-09-02T14:13:51;100334.63;;;25.72;40.45
35553;BME280;21656;46.054;13.614;2022-09-02T14:16:29;100332.28;;;25.76;39.90
35553;BME280;21656;46.054;13.614;2022-09-02T14:21:31;100331.25;;;25.95;41.05
35553;BME280;21656;46.054;13.614;2022-09-02T14:23:58;100333.47;;;25.86;41.04
35553;BME280;21656;46.054;13.614;2022-09-02T14:26:44;100327.50;;;25.89;40.91
35553;BME280;21656;46.054;13.614;2022-09-02T14:29:13;100321.16;;;25.82;42.16
35553;BME280;21656;46.054;13.614;2022-09-02T14:31:40;100325.50;;;25.71;40.24
35553;BME280;21656;46.054;13.614;2022-09-02T14:34:33;100324.16;;;25.56;40.15
35553;BME280;21656;46.054;13.614;2022-09-02T14:37:14;100327.75;;;25.56;39.64
35553;BME280;21656;46.054;13.614;2022-09-02T14:40:03;100316.19;;;25.47;39.88
35553;BME280;21656;46.054;13.614;2022-09-02T14:42:46;100318.97;;;25.41;40.07
35553;BME280;21656;46.054;13.614;2022-09-02T14:45:13;100318.97;;;25.41;40.33
35553;BME280;21656;46.054;13.614;2022-09-02T14:47:48;100317.06;;;25.41;39.81
35553;BME280;21656;46.054;13.614;2022-09-02T14:50:18;100311.78;;;25.40;42.08
35553;BME280;21656;46.054;13.614;2022-09-02T14:52:49;100314.94;;;25.43;41.21
35553;BME280;21656;46.054;13.614;2022-09-02T14:55:52;100310.38;;;25.56;40.62
35553;BME280;21656;46.054;13.614;2022-09-02T14:58:21;100304.03;;;25.55;40.16